Forside
METAR-TAF:

METAR-TAF

Lufthavne :

Glasgow Municipal Airport

Glasgow, Kentucky, USA

Breddekreds: 37-01-54N, længdekreds: 085-57-13W, højde: 218 m

Aktuelle vejr

Denne rapport blev lavet for 14 minutter siden, kl. 15:55 UTC
Vind 8 kt fra sydsydvest
Temperatur 9°C
Fugtighed 46%
Tryk 1023 hPa
Sigt: 16.1 km
Spredte skyer i en højde af 8000 ft

METAR: KGLW 231555Z AUTO 20008KT 10SM SCT080 09/M02 A3022 RMK AO2 T00881021

Tid: 10:09 (16:09 UTC)


TAF: fraværende

Vejrobservationer og prognoser fra mere end 4000 lufthavne (METAR og TAF).

De gule og røde prikker repræsenterer de meteorologiske stationer.

Flyt musen over at se navnet på stationen.

Så klik over at se vejr observationer og prognoser.

At skifte det kort: Klik på de grønne knapper med et sort kors for at zoome ind; på den grønne knap med en bindestreg for at zoome ud; eller på de grønne pile for tilstødende kort.


METAR-TAF: